Time;durP1;ratioP1;P1;durP2;ratioP2;P2;SDS_P1;SDS_P2;PMS_P1;PMS_P2;Temp;Humidity;BMP_temperature;BMP_pressure;BME280_temperature;BME280_humidity;BME280_pressure;Samples;Min_cycle;Max_cycle;Signal;HPM_P1;HPM_P2
2023/02/13 00:03:16;;;;;;;;;;;;;;;;;;;;;
2023/02/13 00:07:17;;;;;;;;;;;;;;;;;;;;;
2023/02/13 00:11:19;;;;;;;;;;;;;;;;;;;;;
2023/02/13 00:15:23;;;;;;;36.00;14.90;;;;;;;5.82;78.83;102348.59;128371;1277;128792;-66
2023/02/13 00:19:19;;;;;;;36.50;17.40;;;;;;;5.81;78.76;102343.61;127096;1307;115361;-66
2023/02/13 00:27:16;;;;;;;;;;;;;;;;;;;;;
2023/02/13 00:35:18;;;;;;;;;;;;;;;;;;;;;
2023/02/13 00:39:22;;;;;;;32.20;15.40;;;;;;;5.78;78.93;102335.98;128527;1275;128855;-67
2023/02/13 00:47:19;;;;;;;;;;;;;;;;;;;;;
2023/02/13 00:55:47;;;;;;;33.10;14.60;;;;;;;5.75;78.99;102345.55;125712;1297;636118;-66
2023/02/13 00:59:48;;;;;;;30.50;15.10;;;;;;;5.72;78.96;102342.88;127538;1295;128961;-66
2023/02/13 01:03:51;;;;;;;35.90;16.30;;;;;;;5.71;78.87;102345.89;126254;1311;115499;-66
2023/02/13 01:07:46;;;;;;;27.60;14.50;;;;;;;5.69;78.90;102336.48;121911;1309;5427136;-67
2023/02/13 01:11:47;;;;;;;28.30;13.50;;;;;;;5.68;79.10;102343.40;124656;1327;115028;-67
2023/02/13 01:15:48;;;;;;;;;;;;;;;;;;;;;
2023/02/13 01:24:14;;;;;;;;;;;;;;;;;;;;;
2023/02/13 01:28:11;;;;;;;;;;;;;;;;;;;;;
2023/02/13 01:32:13;;;;;;;;;;;;;;;;;;;;;
2023/02/13 01:36:21;;;;;;;27.70;14.10;;;;;;;5.64;79.20;102329.20;122370;1295;5391071;-67
2023/02/13 01:40:21;;;;;;;28.10;11.90;;;;;;;5.63;79.10;102326.00;125492;1311;114945;-67
2023/02/13 01:44:28;;;;;;;23.70;13.00;;;;;;;5.62;79.04;102326.71;125502;1304;114867;-66
2023/02/13 01:48:40;;;;;;;28.80;12.80;;;;;;;5.61;79.24;102327.77;124813;1328;114919;-68
2023/02/13 01:57:06;;;;;;;;;;;;;;;;;;;;;
2023/02/13 02:01:09;;;;;;;;;;;;;;;;;;;;;
2023/02/13 02:05:14;;;;;;;;;;;;;;;;;;;;;
2023/02/13 02:09:16;;;;;;;;;;;;;;;;;;;;;
2023/02/13 02:13:27;;;;;;;26.40;12.80;;;;;;;5.58;79.30;102307.38;125264;1307;115059;-66
2023/02/13 02:17:11;;;;;;;;;;;;;;;;;;;;;
2023/02/13 02:21:25;;;;;;;30.30;12.40;;;;;;;5.55;79.30;102306.83;124651;1327;129639;-66
2023/02/13 02:25:37;;;;;;;24.40;13.10;;;;;;;5.54;79.25;102300.80;124678;1311;115282;-66
2023/02/13 02:29:37;;;;;;;24.60;11.60;;;;;;;5.54;79.30;102301.16;124616;1329;114961;-65
2023/02/13 02:33:34;;;;;;;;;;;;;;;;;;;;;
2023/02/13 02:37:54;;;;;;;23.30;12.80;;;;;;;5.57;79.50;102302.05;124359;1320;114902;-66
2023/02/13 02:42:03;;;;;;;;;;;;;;;;;;;;;
2023/02/13 02:46:28;;;;;;;23.10;12.20;;;;;;;5.61;79.35;102302.08;125993;1292;115286;-67
2023/02/13 02:50:26;;;;;;;23.40;11.80;;;;;;;5.62;79.48;102292.69;126998;1290;114894;-67
2023/02/13 03:06:42;;;;;;;;;;;;;;;;;;;;;
2023/02/13 03:14:48;;;;;;;23.90;13.30;;;;;;;5.60;79.69;102308.10;126136;1296;114868;-66
2023/02/13 03:27:14;;;;;;;20.50;12.70;;;;;;;5.66;79.88;102294.98;125158;1324;116520;-65
2023/02/13 03:30:56;;;;;;;26.30;13.40;;;;;;;5.67;79.86;102286.31;125253;1318;115390;-64
2023/02/13 03:38:58;;;;;;;21.50;12.60;;;;;;;5.70;79.90;102304.05;125196;1324;114805;-65
2023/02/13 03:43:11;;;;;;;22.50;12.30;;;;;;;5.69;79.90;102301.04;124202;1317;129767;-65
2023/02/13 03:47:12;;;;;;;22.30;13.50;;;;;;;5.71;79.93;102306.17;124930;1323;115465;-65
2023/02/13 03:59:43;;;;;;;27.20;15.50;;;;;;;5.78;80.19;102303.89;129028;1274;128873;-66
2023/02/13 04:03:55;;;;;;;29.40;14.50;;;;;;;5.80;80.39;102302.66;129013;1271;114757;-65
2023/02/13 04:07:58;;;;;;;28.40;16.10;;;;;;;5.81;80.36;102303.19;125075;1280;5419092;-66
2023/02/13 04:12:11;;;;;;;27.20;16.70;;;;;;;5.82;80.31;102301.41;128043;1292;114913;-65
2023/02/13 04:16:17;;;;;;;29.90;16.40;;;;;;;5.81;80.35;102301.05;128028;1280;114908;-65
2023/02/13 04:20:20;;;;;;;33.90;17.70;;;;;;;5.81;80.38;102295.20;128130;1277;114725;-65
2023/02/13 04:24:14;;;;;;;;;;;;;;;;;;;;;
2023/02/13 04:28:28;;;;;;;;;;;;;;;;;;;;;
2023/02/13 04:32:18;;;;;;;32.40;16.40;;;;;;;5.81;80.67;102294.50;125918;1305;114932;-66
2023/02/13 04:36:09;;;;;;;31.60;17.80;;;;;;;5.82;80.83;102291.14;124855;1318;115063;-66
2023/02/13 04:44:33;;;;;;;;;;;;;;;;;;;;;
2023/02/13 04:48:34;;;;;;;;;;;;;;;;;;;;;
2023/02/13 04:52:38;;;;;;;32.80;19.00;;;;;;;5.89;81.04;102291.67;127349;1302;114810;-66
2023/02/13 04:56:34;;;;;;;;;;;;;;;;;;;;;
2023/02/13 05:00:26;;;;;;;31.70;18.40;;;;;;;5.92;81.19;102280.16;125061;1318;115019;-67
2023/02/13 05:04:19;;;;;;;;;;;;;;;;;;;;;
2023/02/13 05:08:20;;;;;;;28.20;19.90;;;;;;;5.94;81.12;102272.02;124083;1310;128809;-66
2023/02/13 05:16:31;;;;;;;32.60;19.10;;;;;;;5.98;81.25;102272.55;126203;1297;636043;-67
2023/02/13 05:20:36;;;;;;;33.00;20.80;;;;;;;5.97;81.16;102274.67;128354;1277;128726;-68
2023/02/13 05:24:37;;;;;;;35.80;21.20;;;;;;;5.97;81.30;102275.91;127338;1286;115401;-67
2023/02/13 05:32:42;;;;;;;34.70;22.00;;;;;;;5.96;81.39;102276.27;125630;1302;114951;-67
2023/02/13 05:40:53;;;;;;;35.70;21.90;;;;;;;5.97;81.48;102273.80;126207;1295;635288;-67
2023/02/13 05:44:56;;;;;;;;;;;;;;;;;;;;;
2023/02/13 05:48:53;;;;;;;41.60;23.50;;;;;;;5.96;81.58;102277.16;127440;1283;116386;-67
2023/02/13 05:52:56;;;;;;;36.60;21.50;;;;;;;5.97;81.65;102277.86;123136;1293;5399140;-68
2023/02/13 05:56:50;;;;;;;34.10;20.70;;;;;;;5.97;81.59;102283.71;125751;1315;114915;-67
2023/02/13 06:00:35;;;;;;;32.20;20.30;;;;;;;5.97;81.57;102289.74;125702;1319;114866;-67
2023/02/13 06:04:36;;;;;;;31.20;20.10;;;;;;;5.97;81.79;102289.21;125614;1302;129768;-67
2023/02/13 06:12:56;;;;;;;31.30;19.60;;;;;;;5.97;81.61;102287.80;125730;1294;637985;-67
2023/02/13 06:17:12;;;;;;;33.20;20.80;;;;;;;5.97;81.82;102295.95;128220;1280;128893;-66
2023/02/13 06:20:58;;;;;;;34.30;21.90;;;;;;;5.99;81.87;102290.11;128120;1280;116485;-66
2023/02/13 06:25:00;;;;;;;37.50;22.60;;;;;;;6.00;81.89;102296.70;123087;1290;5449242;-67
2023/02/13 06:29:00;;;;;;;39.20;24.60;;;;;;;6.03;82.07;102296.17;125628;1318;114964;-66
2023/02/13 06:32:47;;;;;;;;;;;;;;;;;;;;;
2023/02/13 06:40:58;;;;;;;;;;;;;;;;;;;;;
2023/02/13 06:44:53;;;;;;;;;;;;;;;;;;;;;
2023/02/13 06:48:54;;;;;;;37.10;23.50;;;;;;;6.08;82.23;102313.39;126530;1300;115407;-67
2023/02/13 06:52:36;;;;;;;;;;;;;;;;;;;;;
2023/02/13 06:56:36;;;;;;;37.50;23.10;;;;;;;6.11;82.32;102316.06;122120;1311;115163;-67
2023/02/13 07:00:22;;;;;;;;;;;;;;;;;;;;;
2023/02/13 07:04:25;;;;;;;34.10;21.90;;;;;;;6.16;82.50;102307.89;124296;1327;114987;-67
2023/02/13 07:12:55;;;;;;;38.70;23.10;;;;;;;6.23;82.58;102312.15;125645;1311;640208;-67
2023/02/13 07:16:58;;;;;;;34.90;20.60;;;;;;;6.23;82.54;102312.88;127626;1286;128850;-67
2023/02/13 07:20:54;;;;;;;;;;;;;;;;;;;;;
2023/02/13 07:25:12;;;;;;;37.30;22.70;;;;;;;6.31;82.59;102301.17;122020;1304;5466510;-67
2023/02/13 07:33:40;;;;;;;34.90;21.90;;;;;;;6.40;82.78;102299.41;125688;1311;635895;-69
2023/02/13 07:37:41;;;;;;;33.20;22.40;;;;;;;6.42;82.75;102300.64;127064;1306;127939;-68
2023/02/13 07:41:52;;;;;;;33.40;20.10;;;;;;;6.47;82.72;102299.58;126072;1298;115265;-67
2023/02/13 07:46:06;;;;;;;34.70;20.20;;;;;;;6.51;82.73;102296.39;121149;1300;6412522;-67
2023/02/13 07:50:08;;;;;;;41.10;22.60;;;;;;;6.56;82.73;102298.52;124104;1332;114912;-68
2023/02/13 07:54:08;;;;;;;32.00;21.00;;;;;;;6.61;82.73;102304.38;124076;1332;115015;-67
2023/02/13 08:02:34;;;;;;;;;;;;;;;;;;;;;
2023/02/13 08:06:30;;;;;;;34.90;21.10;;;;;;;6.75;82.74;102301.34;128084;1278;128954;-67
2023/02/13 08:14:44;;;;;;;;;;;;;;;;;;;;;
2023/02/13 08:18:48;;;;;;;36.50;20.10;;;;;;;6.90;83.11;102307.70;127356;1285;114866;-67
2023/02/13 08:22:50;;;;;;;37.70;23.90;;;;;;;6.96;83.15;102305.56;127429;1301;114877;-68
2023/02/13 08:26:54;;;;;;;35.50;21.40;;;;;;;7.03;83.10;102300.92;126559;1290;129044;-68
2023/02/13 08:30:36;;;;;;;;;;;;;;;;;;;;;
2023/02/13 08:34:49;;;;;;;38.50;23.40;;;;;;;7.19;82.86;102298.92;126528;1303;636299;-68
2023/02/13 08:38:50;;;;;;;;;;;;;;;;;;;;;
2023/02/13 08:42:57;;;;;;;31.60;16.60;;;;;;;7.32;83.05;102301.02;128663;1273;115254;-68
2023/02/13 08:47:02;;;;;;;30.50;16.50;;;;;;;7.39;82.90;102302.59;123368;1296;5443371;-68
2023/02/13 08:51:02;;;;;;;34.40;17.10;;;;;;;7.45;83.08;102302.38;125419;1322;114958;-67
2023/02/13 08:55:03;;;;;;;33.10;16.60;;;;;;;7.51;83.00;102303.96;123867;1333;114904;-68
2023/02/13 09:03:29;;;;;;;30.90;16.40;;;;;;;7.66;82.80;102300.52;125655;1299;637447;-67
2023/02/13 09:07:31;;;;;;;29.10;16.60;;;;;;;7.67;82.98;102308.87;127683;1294;128779;-68
2023/02/13 09:11:41;;;;;;;35.40;17.20;;;;;;;7.72;82.76;102316.66;126516;1296;115221;-67
2023/02/13 09:15:43;;;;;;;32.20;15.60;;;;;;;7.75;82.65;102317.90;121686;1321;5463853;-67
2023/02/13 09:24:15;;;;;;;17.60;10.50;;;;;;;7.77;82.28;102329.98;125504;1306;638593;-67
2023/02/13 09:28:16;;;;;;;9.60;5.90;;;;;;;7.63;81.55;102344.80;127688;1283;128883;-67
2023/02/13 09:32:13;;;;;;;6.80;4.90;;;;;;;7.45;81.24;102347.55;126895;1302;115276;-67
2023/02/13 09:36:14;;;;;;;8.50;4.80;;;;;;;7.38;81.46;102354.50;122424;1297;5451369;-68
2023/02/13 09:40:08;;;;;;;;;;;;;;;;;;;;;
2023/02/13 09:44:14;;;;;;;;;;;;;;;;;;;;;
2023/02/13 09:48:23;;;;;;;6.70;4.20;;;;;;;7.50;81.64;102353.04;125330;1299;128466;-66
2023/02/13 09:56:48;;;;;;;9.50;5.00;;;;;;;7.81;81.69;102355.40;126291;1295;636327;-69
2023/02/13 10:00:53;;;;;;;6.90;4.40;;;;;;;7.91;80.93;102358.02;129030;1270;129157;-68
2023/02/13 10:05:07;;;;;;;;;;;;;;;;;;;;;
2023/02/13 10:09:19;;;;;;;11.60;6.70;;;;;;;8.20;81.09;102354.29;124976;1283;5424204;-68
2023/02/13 10:13:33;;;;;;;11.50;5.20;;;;;;;8.33;80.93;102354.92;128825;1272;114967;-69
2023/02/13 10:17:42;;;;;;;10.80;4.60;;;;;;;8.47;80.60;102350.73;129302;1272;114725;-69
2023/02/13 10:21:49;;;;;;;11.50;6.40;;;;;;;8.55;80.61;102344.45;129099;1272;128894;-69
2023/02/13 10:25:53;;;;;;;7.30;4.30;;;;;;;8.63;80.23;102345.10;128180;1276;116480;-69
2023/02/13 10:33:59;;;;;;;10.20;4.40;;;;;;;8.87;80.02;102338.13;128073;1278;114918;-68
2023/02/13 10:38:03;;;;;;;9.70;4.80;;;;;;;9.01;79.49;102334.25;128023;1281;114903;-68
2023/02/13 10:42:15;;;;;;;7.30;4.20;;;;;;;9.13;78.67;102331.98;126812;1289;127834;-69
2023/02/13 10:46:28;;;;;;;7.80;4.60;;;;;;;9.17;78.16;102331.77;126823;1309;116415;-68
2023/02/13 10:50:33;;;;;;;6.10;4.10;;;;;;;9.19;77.98;102330.30;127644;1278;115012;-68
2023/02/13 10:54:46;;;;;;;10.50;5.30;;;;;;;9.25;77.71;102327.39;127736;1301;114932;-68
2023/02/13 10:59:14;;;;;;;8.10;4.30;;;;;;;9.26;77.04;102319.35;127673;1284;114875;-67
2023/02/13 11:03:25;;;;;;;8.50;4.40;;;;;;;9.26;77.01;102313.81;128041;1296;128293;-68
2023/02/13 11:07:35;;;;;;;7.00;4.90;;;;;;;9.33;76.86;102313.57;127410;1299;116467;-68
2023/02/13 11:15:40;;;;;;;8.30;4.80;;;;;;;9.39;76.66;102305.83;126112;1292;114919;-68
2023/02/13 11:19:40;;;;;;;6.30;4.50;;;;;;;9.47;76.49;102301.44;125728;1314;116611;-68
2023/02/13 11:23:53;;;;;;;8.10;3.80;;;;;;;9.50;76.00;102300.34;125653;1314;130091;-68
2023/02/13 11:32:30;;;;;;;6.80;5.00;;;;;;;9.54;75.26;102292.45;126134;1306;635923;-69
2023/02/13 11:36:45;;;;;;;9.20;5.50;;;;;;;9.48;75.15;102301.27;128236;1280;128422;-68
2023/02/13 11:40:45;;;;;;;;;;;;;;;;;;;;;
2023/02/13 11:45:02;;;;;;;6.20;4.60;;;;;;;9.17;74.11;102292.71;122368;1303;5427997;-68
2023/02/13 11:49:06;;;;;;;7.30;3.50;;;;;;;9.07;74.18;102294.61;126299;1305;115015;-68
2023/02/13 11:53:01;;;;;;;;;;;;;;;;;;;;;
2023/02/13 11:57:11;;;;;;;5.30;4.70;;;;;;;8.83;74.02;102292.37;123508;1316;130385;-67
2023/02/13 12:01:28;;;;;;;7.70;6.20;;;;;;;8.78;74.06;102296.52;123834;1315;115556;-69
2023/02/13 12:05:29;;;;;;;8.40;6.70;;;;;;;8.73;73.86;102308.33;123311;1340;115034;-68
2023/02/13 12:13:55;;;;;;;10.00;6.30;;;;;;;8.60;73.42;102305.41;127009;1286;635991;-69
2023/02/13 12:22:05;;;;;;;9.20;5.40;;;;;;;8.38;73.09;102308.06;128095;1275;114850;-68
2023/02/13 12:26:08;;;;;;;;;;;;;;;;;;;;;
2023/02/13 12:30:20;;;;;;;10.60;6.40;;;;;;;8.12;73.20;102297.21;127779;1301;114891;-69
2023/02/13 12:34:18;;;;;;;10.20;5.30;;;;;;;8.03;72.73;102290.33;127658;1282;115548;-69
2023/02/13 12:38:20;;;;;;;11.20;5.10;;;;;;;7.95;72.68;102280.43;127792;1282;128873;-68
2023/02/13 12:42:38;;;;;;;7.00;5.40;;;;;;;7.87;72.96;102277.80;127655;1301;114782;-67
2023/02/13 12:46:46;;;;;;;7.20;5.90;;;;;;;7.82;73.19;102284.06;127781;1279;114982;-67
2023/02/13 12:51:27;;;;;;;10.40;5.40;;;;;;;7.74;72.63;102282.50;128013;1280;114805;-69
2023/02/13 12:54:55;;;;;;;;;;;;;;;;;;;;;
2023/02/13 12:59:06;;;;;;;12.40;8.60;;;;;;;7.59;72.78;102288.27;128217;1272;128905;-68
2023/02/13 13:03:14;;;;;;;17.20;9.60;;;;;;;7.59;73.18;102282.06;128554;1292;115373;-68
2023/02/13 13:07:27;;;;;;;20.60;11.00;;;;;;;7.61;73.38;102274.95;129007;1273;114901;-68
2023/02/13 13:11:38;;;;;;;19.10;9.80;;;;;;;7.60;73.07;102264.80;129337;1279;114738;-68
2023/02/13 13:15:52;;;;;;;12.60;8.10;;;;;;;7.60;73.18;102264.10;129288;1269;114838;-68
2023/02/13 13:20:13;;;;;;;12.10;5.60;;;;;;;7.64;73.27;102268.50;129277;1263;128644;-68
2023/02/13 13:24:18;;;;;;;9.30;6.30;;;;;;;7.64;72.81;102276.16;129110;1262;115253;-67
2023/02/13 13:28:16;;;;;;;;;;;;;;;;;;;;;
2023/02/13 13:32:14;;;;;;;11.80;6.90;;;;;;;7.62;72.77;102288.80;129174;1286;114859;-70
2023/02/13 13:36:18;;;;;;;12.80;7.90;;;;;;;7.60;72.62;102285.26;129046;1286;115014;-69
2023/02/13 13:40:24;;;;;;;9.30;5.60;;;;;;;7.59;72.57;102281.70;128067;1281;128313;-67
2023/02/13 13:44:25;;;;;;;9.50;6.70;;;;;;;7.57;72.31;102272.98;127973;1280;115191;-67
2023/02/13 13:48:37;;;;;;;12.40;7.10;;;;;;;7.56;72.83;102262.15;128385;1280;114821;-68
2023/02/13 13:52:50;;;;;;;11.10;6.70;;;;;;;7.57;72.52;102261.80;128273;1280;114830;-69
2023/02/13 13:57:18;;;;;;;14.80;7.10;;;;;;;7.54;72.30;102265.89;128486;1298;114877;-68
2023/02/13 14:01:11;;;;;;;13.90;7.60;;;;;;;7.52;72.33;102258.98;127764;1281;129786;-68
2023/02/13 14:05:13;;;;;;;12.80;8.80;;;;;;;7.52;72.56;102248.49;126747;1283;116556;-67
2023/02/13 14:09:36;;;;;;;11.70;8.00;;;;;;;7.51;72.32;102250.45;127069;1299;114964;-68
2023/02/13 14:17:42;;;;;;;11.60;7.30;;;;;;;7.45;72.42;102262.74;126744;1296;114996;-69
2023/02/13 14:21:50;;;;;;;42.50;17.10;;;;;;;7.43;72.42;102257.25;127094;1286;129710;-69
2023/02/13 14:26:03;;;;;;;17.90;8.50;;;;;;;7.40;72.24;102250.86;127151;1283;116465;-69
2023/02/13 14:34:10;;;;;;;83.80;43.50;;;;;;;7.42;72.32;102236.09;127443;1285;114868;-69
2023/02/13 14:38:38;;;;;;;17.30;11.20;;;;;;;7.39;72.51;102231.84;126120;1311;115204;-69
2023/02/13 14:42:33;;;;;;;14.70;10.30;;;;;;;7.34;72.20;102226.72;125509;1300;130136;-69
2023/02/13 14:46:36;;;;;;;22.00;17.20;;;;;;;7.33;72.25;102217.66;125723;1300;115431;-69
2023/02/13 14:50:40;;;;;;;15.20;9.80;;;;;;;7.33;72.35;102212.49;125510;1306;114827;-69
2023/02/13 14:54:42;;;;;;;12.50;9.00;;;;;;;7.30;72.42;102209.66;125724;1315;115222;-68
2023/02/13 14:58:52;;;;;;;17.80;8.90;;;;;;;7.29;72.39;102216.06;125519;1319;114981;-69
2023/02/13 15:02:57;;;;;;;10.90;7.50;;;;;;;7.28;72.52;102203.30;125476;1301;129916;-69
2023/02/13 15:07:04;;;;;;;19.50;9.10;;;;;;;7.25;72.32;102198.14;125609;1302;115244;-70
2023/02/13 15:11:34;;;;;;;10.50;6.70;;;;;;;7.21;72.42;102187.66;125651;1309;114859;-69
2023/02/13 15:15:16;;;;;;;12.10;7.00;;;;;;;7.18;72.52;102191.07;126027;1304;114830;-69
2023/02/13 15:19:21;;;;;;;10.80;7.60;;;;;;;7.12;72.40;102194.46;127064;1301;114828;-68
2023/02/13 15:23:23;;;;;;;15.40;9.20;;;;;;;7.08;72.47;102199.29;126990;1287;129783;-68
2023/02/13 15:27:24;;;;;;;13.40;8.00;;;;;;;7.03;72.57;102201.80;126240;1308;115474;-67
2023/02/13 15:31:38;;;;;;;15.10;8.60;;;;;;;7.00;72.59;102204.11;127473;1285;114974;-67
2023/02/13 15:39:43;;;;;;;26.10;13.10;;;;;;;6.95;72.53;102196.49;128058;1283;115018;-67
2023/02/13 15:47:41;;;;;;;;;;;;;;;;;;;;;
2023/02/13 15:51:44;;;;;;;24.20;12.50;;;;;;;6.81;72.67;102189.44;126091;1308;114872;-73
2023/02/13 15:55:48;;;;;;;18.60;10.40;;;;;;;6.81;72.61;102194.23;125604;1314;114888;-71
2023/02/13 15:59:50;;;;;;;10.90;6.30;;;;;;;6.78;72.71;102197.44;125744;1294;115028;-72
2023/02/13 16:03:54;;;;;;;18.00;10.00;;;;;;;6.75;73.08;102196.02;124823;1316;127695;-70
2023/02/13 16:12:32;;;;;;;18.50;11.70;;;;;;;6.70;73.00;102194.09;125348;1298;638616;-69
2023/02/13 16:16:33;;;;;;;22.30;13.80;;;;;;;6.64;72.88;102189.48;127965;1281;128591;-64
2023/02/13 16:20:52;;;;;;;23.60;12.90;;;;;;;6.62;73.13;102196.06;126686;1289;115316;-70
2023/02/13 16:25:00;;;;;;;22.20;12.30;;;;;;;6.60;73.08;102186.66;122689;1293;5495016;-67
2023/02/13 16:28:59;;;;;;;;;;;;;;;;;;;;;
2023/02/13 16:37:47;;;;;;;17.10;10.30;;;;;;;6.53;73.12;102193.24;125308;1305;638914;-72
2023/02/13 16:41:59;;;;;;;22.30;11.70;;;;;;;6.49;73.15;102189.70;127946;1285;128418;-71
2023/02/13 16:46:05;;;;;;;26.20;14.80;;;;;;;6.47;73.18;102195.73;127599;1298;115385;-69
2023/02/13 16:50:13;;;;;;;19.30;12.70;;;;;;;6.46;73.51;102199.66;123228;1297;5577984;-72
2023/02/13 16:58:30;;;;;;;13.70;8.50;;;;;;;6.46;73.42;102187.58;125328;1312;639562;-73
2023/02/13 17:02:32;;;;;;;13.00;7.50;;;;;;;6.42;73.66;102185.11;128380;1280;127595;-69
2023/02/13 17:06:35;;;;;;;14.50;8.30;;;;;;;6.40;73.50;102181.73;127376;1303;114905;-70
2023/02/13 17:14:48;;;;;;;18.00;10.30;;;;;;;6.37;73.81;102184.05;126505;1306;114796;-74
2023/02/13 17:18:49;;;;;;;17.50;10.60;;;;;;;6.35;73.73;102167.38;126154;1297;114795;-69
2023/02/13 17:22:49;;;;;;;;;;;;;;;;;;;;;
2023/02/13 17:31:07;;;;;;;22.40;11.10;;;;;;;6.37;73.99;102157.43;125632;1316;638406;-69
2023/02/13 17:35:02;;;;;;;23.90;12.80;;;;;;;6.36;73.99;102167.38;127174;1305;128998;-65
2023/02/13 17:39:06;;;;;;;18.60;11.20;;;;;;;6.37;74.07;102173.05;126535;1304;115460;-66
2023/02/13 17:43:11;;;;;;;19.90;10.70;;;;;;;6.36;74.01;102165.05;121996;1302;5492137;-72
2023/02/13 17:47:11;;;;;;;28.30;12.00;;;;;;;6.35;74.18;102172.88;125030;1311;114890;-74
2023/02/13 17:55:27;;;;;;;;;;;;;;;;;;;;;
2023/02/13 17:59:29;;;;;;;28.80;18.50;;;;;;;6.36;74.32;102181.21;128450;1294;128742;-69
2023/02/13 18:03:31;;;;;;;30.00;18.20;;;;;;;6.37;74.67;102179.08;128212;1286;115388;-69
2023/02/13 18:07:31;;;;;;;;;;;;;;;;;;;;;
2023/02/13 18:11:35;;;;;;;36.10;19.90;;;;;;;6.36;75.09;102164.17;126643;1301;114854;-70
2023/02/13 18:15:27;;;;;;;;;;;;;;;;;;;;;
2023/02/13 18:19:28;;;;;;;30.70;19.80;;;;;;;6.34;75.39;102160.27;124790;1311;129920;-69
2023/02/13 18:27:57;;;;;;;28.20;18.60;;;;;;;6.40;75.48;102173.39;125482;1300;638600;-65
2023/02/13 18:31:52;;;;;;;34.20;21.00;;;;;;;6.38;75.63;102168.59;128136;1280;128921;-66
2023/02/13 18:35:56;;;;;;;34.90;20.80;;;;;;;6.39;75.76;102159.20;127378;1280;114955;-70
2023/02/13 18:40:00;;;;;;;32.40;20.40;;;;;;;6.38;75.70;102162.21;123007;1290;5599325;-70
2023/02/13 18:44:01;;;;;;;;;;;;;;;;;;;;;
2023/02/13 18:52:24;;;;;;;38.60;21.30;;;;;;;6.40;75.96;102170.02;125604;1299;641289;-67
2023/02/13 18:56:21;;;;;;;33.40;20.60;;;;;;;6.38;76.12;102163.98;128768;1273;128914;-68
2023/02/13 19:00:15;;;;;;;;;;;;;;;;;;;;;
2023/02/13 19:03:59;;;;;;;;;;;;;;;6.33;76.18;102161.70;122814;1295;5464985;-67
2023/02/13 19:07:44;;;;;;;;;;;;;;;;;;;;;
2023/02/13 19:11:44;;;;;;;;;;;;;;;;;;;;;
2023/02/13 19:19:50;;;;;;;31.10;19.50;;;;;;;6.34;76.45;102195.23;126323;1305;636571;-69
2023/02/13 19:23:53;;;;;;;30.40;19.00;;;;;;;6.32;76.29;102199.48;128883;1294;127629;-68
2023/02/13 19:27:55;;;;;;;26.10;16.80;;;;;;;6.32;76.45;102196.64;127582;1298;115286;-70
2023/02/13 19:32:03;;;;;;;27.30;17.00;;;;;;;6.30;76.38;102190.44;122750;1303;5428729;-72
2023/02/13 19:36:03;;;;;;;28.80;17.80;;;;;;;6.29;76.56;102204.11;126484;1299;114759;-80
2023/02/13 19:40:05;;;;;;;27.10;16.70;;;;;;;6.26;76.41;102199.67;125858;1296;114817;-80
2023/02/13 19:44:26;;;;;;;29.00;17.80;;;;;;;6.21;76.47;102199.33;125427;1321;115243;-77
2023/02/13 19:48:03;;;;;;;;;;;;;;;;;;;;;
2023/02/13 19:56:35;;;;;;;25.20;16.10;;;;;;;6.16;76.83;102208.19;125556;1298;635897;-67
2023/02/13 20:00:29;;;;;;;29.10;17.50;;;;;;;6.14;76.66;102216.89;128292;1280;128171;-68
2023/02/13 20:04:35;;;;;;;26.50;16.20;;;;;;;6.13;76.76;102219.91;127980;1294;115287;-66
2023/02/13 20:08:34;;;;;;;26.70;15.70;;;;;;;6.11;76.70;102221.34;123402;1286;5753770;-66
2023/02/13 20:12:37;;;;;;;25.50;15.50;;;;;;;6.11;76.67;102228.78;127261;1284;114938;-67
2023/02/13 20:16:21;;;;;;;;;;;;;;;6.11;76.71;102231.09;125972;1299;114930;-69
2023/02/13 20:19:53;;;;;;;;;;;;;;;;;;;;;
2023/02/13 20:23:45;;;;;;;24.70;14.30;;;;;;;6.08;76.45;102236.23;125534;1301;128143;-67
2023/02/13 20:27:40;;;;;;;;;;;;;;;;;;;;;
2023/02/13 20:31:28;;;;;;;;;;;;;;;;;;;;;
2023/02/13 20:35:29;;;;;;;24.60;16.00;;;;;;;6.07;76.53;102247.23;123694;1314;115092;-67
2023/02/13 20:43:48;;;;;;;29.00;16.80;;;;;;;6.10;76.34;102259.29;125623;1300;637093;-67
2023/02/13 20:47:48;;;;;;;;;;;;;;;;;;;;;
2023/02/13 20:56:14;;;;;;;;;;;;;;;;;;;;;
2023/02/13 21:00:13;;;;;;;;;;;;;;;;;;;;;
2023/02/13 21:04:08;;;;;;;;;;;;;;;;;;;;;
2023/02/13 21:08:19;;;;;;;33.40;19.30;;;;;;;6.01;75.81;102288.20;122083;1316;5605469;-68
2023/02/13 21:12:14;;;;;;;31.10;17.40;;;;;;;5.99;76.11;102285.87;124593;1324;114965;-67
2023/02/13 21:15:52;;;;;;;;;;;;;;;;;;;;;
2023/02/13 21:19:30;;;;;;;;;;;;;;;;;;;;;
2023/02/13 21:23:21;;;;;;;;;;;;;;;;;;;;;
2023/02/13 21:27:42;;;;;;;30.10;18.40;;;;;;;5.93;75.80;102289.58;126390;1296;636093;-69
2023/02/13 21:31:46;;;;;;;;;;;;;;;;;;;;;
2023/02/13 21:35:49;;;;;;;;;;;;;;;;;;;;;
2023/02/13 21:39:53;;;;;;;30.70;18.40;;;;;;;5.87;75.64;102298.60;123115;1290;5454856;-69
2023/02/13 21:43:51;;;;;;;34.10;18.90;;;;;;;5.84;75.63;102299.83;125085;1325;115029;-69
2023/02/13 21:47:51;;;;;;;29.80;19.10;;;;;;;5.84;75.68;102297.70;124532;1329;114962;-67
2023/02/13 21:56:28;;;;;;;29.30;19.50;;;;;;;5.84;75.35;102296.98;126925;1290;639459;-69
2023/02/13 22:00:31;;;;;;;29.40;17.70;;;;;;;5.77;75.16;102299.46;128460;1275;128858;-68
2023/02/13 22:04:27;;;;;;;34.60;18.30;;;;;;;5.76;75.16;102306.37;126793;1290;115499;-67
2023/02/13 22:08:31;;;;;;;27.70;17.40;;;;;;;5.74;75.00;102308.66;122247;1296;5423795;-68
2023/02/13 22:12:33;;;;;;;28.80;17.40;;;;;;;5.71;74.75;102312.56;125459;1319;114881;-68
2023/02/13 22:21:05;;;;;;;31.90;19.10;;;;;;;5.66;74.69;102308.82;125795;1296;637046;-68
2023/02/13 22:25:10;;;;;;;31.90;19.00;;;;;;;5.62;74.71;102312.70;128666;1272;127144;-68
2023/02/13 22:29:12;;;;;;;34.50;19.00;;;;;;;5.60;74.68;102318.73;127619;1295;115268;-68
2023/02/13 22:33:04;;;;;;;;;;;;;;;;;;;;;
2023/02/13 22:36:59;;;;;;;34.00;19.80;;;;;;;5.57;74.82;102324.56;127198;1289;114931;-69
2023/02/13 22:41:04;;;;;;;35.20;19.70;;;;;;;5.54;74.61;102320.83;126593;1295;115492;-69
2023/02/13 22:45:04;;;;;;;35.60;17.90;;;;;;;5.52;74.57;102320.46;125593;1304;115282;-69
2023/02/13 22:48:51;;;;;;;;;;;;;;;;;;;;;
2023/02/13 23:01:13;;;;;;;;;;;;;;;;;;;;;
2023/02/13 23:05:17;;;;;;;29.10;18.20;;;;;;;5.42;74.25;102309.09;126773;1293;115374;-68
2023/02/13 23:09:16;;;;;;;28.20;17.50;;;;;;;5.42;74.39;102311.38;121619;1302;5597460;-67
2023/02/13 23:13:47;;;;;;;29.40;18.10;;;;;;;5.41;74.42;102311.56;124698;1327;114975;-67
2023/02/13 23:21:34;;;;;;;30.20;18.80;;;;;;;5.37;74.47;102303.93;124697;1310;128913;-67
2023/02/13 23:29:34;;;;;;;;;;;;;;;;;;;;;
2023/02/13 23:33:32;;;;;;;29.30;17.90;;;;;;;5.35;74.26;102306.92;128040;1279;129088;-68
2023/02/13 23:37:28;;;;;;;29.10;18.20;;;;;;;5.32;74.11;102304.25;127223;1288;115283;-67
2023/02/13 23:41:26;;;;;;;21.00;14.20;;;;;;;5.30;74.26;102301.05;126882;1289;115012;-67
2023/02/13 23:45:12;;;;;;;29.00;19.10;;;;;;;5.31;74.52;102305.66;123456;1280;114893;-68
2023/02/13 23:49:13;;;;;;;26.30;17.60;;;;;;;5.31;74.37;102302.66;126251;1294;114875;-66
2023/02/13 23:53:07;;;;;;;;;;;;;;;;;;;;;
2023/02/13 23:57:00;;;;;;;;;;;;;;;;;;;;;
